createdAt,value
2024-05-09T00:00:29.894Z,8.49
2024-05-09T00:03:36.703Z,8.42
2024-05-09T00:06:38.306Z,8.44
2024-05-09T00:09:39.791Z,8.38
2024-05-09T00:12:41.330Z,8.27
2024-05-09T00:15:42.843Z,8.18
2024-05-09T00:18:44.508Z,8.13
2024-05-09T00:21:46.137Z,8.12
2024-05-09T00:24:47.638Z,7.96
2024-05-09T00:27:49.147Z,7.97
2024-05-09T00:30:50.691Z,7.90
2024-05-09T00:33:53.249Z,7.90
2024-05-09T00:36:54.832Z,7.84
2024-05-09T00:39:56.360Z,7.79
2024-05-09T00:42:57.858Z,7.74
2024-05-09T00:45:59.600Z,7.72
2024-05-09T00:49:01.302Z,7.71
2024-05-09T00:52:02.853Z,7.61
2024-05-09T00:55:04.415Z,7.63
2024-05-09T00:58:06.025Z,7.47
2024-05-09T01:01:07.816Z,7.49
2024-05-09T01:04:09.916Z,7.44
2024-05-09T01:07:11.480Z,7.39
2024-05-09T01:10:17.446Z,7.27
2024-05-09T01:13:25.506Z,7.20
2024-05-09T01:16:26.971Z,7.16
2024-05-09T01:19:28.887Z,7.10
2024-05-09T01:22:30.516Z,7.10
2024-05-09T01:25:33.006Z,7.02
2024-05-09T01:28:34.545Z,6.98
2024-05-09T01:31:36.108Z,6.95
2024-05-09T01:34:37.590Z,6.94
2024-05-09T01:37:40.331Z,6.89
2024-05-09T01:40:42.557Z,6.86
2024-05-09T01:43:44.087Z,6.81
2024-05-09T01:46:45.724Z,6.76
2024-05-09T01:49:47.260Z,6.70
2024-05-09T01:52:51.762Z,6.67
2024-05-09T01:55:53.416Z,6.72
2024-05-09T01:58:55.017Z,6.71
2024-05-09T02:01:57.790Z,6.72
2024-05-09T02:04:59.632Z,6.66
2024-05-09T02:08:01.360Z,6.57
2024-05-09T02:11:03.110Z,6.64
2024-05-09T02:14:04.812Z,6.67
2024-05-09T02:17:06.315Z,6.68
2024-05-09T02:20:13.102Z,6.58
2024-05-09T02:23:18.333Z,6.44
2024-05-09T02:26:19.970Z,6.38
2024-05-09T02:29:21.622Z,6.42
2024-05-09T02:32:23.200Z,6.46
2024-05-09T02:35:25.086Z,6.45
2024-05-09T02:38:26.696Z,6.43
2024-05-09T02:41:28.358Z,6.35
2024-05-09T02:44:30.045Z,6.29
2024-05-09T02:47:31.746Z,6.18
2024-05-09T02:50:38.329Z,6.14
2024-05-09T02:53:41.479Z,6.12
2024-05-09T02:56:43.052Z,6.18
2024-05-09T02:59:44.596Z,6.13
2024-05-09T03:02:46.207Z,6.07
2024-05-09T03:05:47.965Z,6.08
2024-05-09T03:08:49.607Z,6.14
2024-05-09T03:11:51.773Z,6.16
2024-05-09T03:14:53.369Z,6.10
2024-05-09T03:17:55.035Z,6.13
2024-05-09T03:20:56.631Z,6.07
2024-05-09T03:23:58.175Z,6.01
2024-05-09T03:26:59.664Z,5.95
2024-05-09T03:30:01.145Z,5.93
2024-05-09T03:33:02.795Z,5.94
2024-05-09T03:36:06.894Z,5.98
2024-05-09T03:39:10.989Z,5.94
2024-05-09T03:42:12.562Z,5.78
2024-05-09T03:45:14.106Z,5.77
2024-05-09T03:48:15.941Z,5.68
2024-05-09T03:51:17.588Z,5.63
2024-05-09T03:54:19.243Z,5.63
2024-05-09T03:57:20.740Z,5.61
2024-05-09T04:00:30.891Z,5.56
2024-05-09T04:03:39.694Z,5.66
2024-05-09T04:06:43.102Z,5.67
2024-05-09T04:09:44.579Z,5.62
2024-05-09T04:12:46.081Z,5.63
2024-05-09T04:15:47.600Z,5.73
2024-05-09T04:18:49.450Z,5.64
2024-05-09T04:21:51.028Z,5.61
2024-05-09T04:24:52.925Z,5.57
2024-05-09T04:27:55.935Z,5.52
2024-05-09T04:30:57.434Z,5.53
2024-05-09T04:33:59.054Z,5.48
2024-05-09T04:37:00.844Z,5.57
2024-05-09T04:40:02.366Z,5.66
2024-05-09T04:43:07.191Z,5.54
2024-05-09T04:46:09.086Z,5.64
2024-05-09T04:49:10.720Z,5.61
2024-05-09T04:52:12.295Z,5.62
2024-05-09T04:55:13.797Z,5.72
2024-05-09T04:58:15.496Z,5.76
2024-05-09T05:01:17.034Z,5.77
2024-05-09T05:04:18.569Z,5.82
2024-05-09T05:07:20.172Z,5.99
2024-05-09T05:10:29.428Z,6.06
2024-05-09T05:13:38.628Z,6.16
2024-05-09T05:16:41.660Z,6.23
2024-05-09T05:19:43.273Z,6.29
2024-05-09T05:22:44.854Z,6.37
2024-05-09T05:25:49.831Z,6.48
2024-05-09T05:28:51.731Z,6.57
2024-05-09T05:31:53.441Z,6.65
2024-05-09T05:34:55.006Z,6.73
2024-05-09T05:37:56.662Z,6.78
2024-05-09T05:40:58.228Z,6.88
2024-05-09T05:43:59.770Z,6.99
2024-05-09T05:47:01.509Z,7.13
2024-05-09T05:50:05.195Z,7.24
2024-05-09T05:53:09.356Z,7.33
2024-05-09T05:56:11.801Z,7.44
2024-05-09T05:59:15.025Z,7.52
2024-05-09T06:02:16.908Z,7.63
2024-05-09T06:05:18.555Z,7.77
2024-05-09T06:08:20.144Z,7.87
2024-05-09T06:11:21.788Z,7.95
2024-05-09T06:14:23.513Z,8.04
2024-05-09T06:17:25.205Z,8.08
2024-05-09T06:20:34.852Z,8.13
2024-05-09T06:23:48.252Z,8.22
2024-05-09T06:26:49.810Z,8.36
2024-05-09T06:29:51.326Z,8.40
2024-05-09T06:32:53.018Z,8.57
2024-05-09T06:35:59.248Z,8.83
2024-05-09T06:39:00.761Z,9.11
2024-05-09T06:42:02.267Z,9.31
2024-05-09T06:45:03.805Z,9.58
2024-05-09T06:48:05.862Z,9.83
2024-05-09T06:51:07.464Z,10.02
2024-05-09T06:54:08.973Z,10.22
2024-05-09T06:57:10.534Z,10.35
2024-05-09T07:00:15.684Z,10.63
2024-05-09T07:03:23.929Z,11.10
2024-05-09T07:06:25.592Z,11.46
2024-05-09T07:09:27.071Z,11.82
2024-05-09T07:12:28.687Z,11.91
2024-05-09T07:15:30.534Z,12.20
2024-05-09T07:18:32.093Z,12.30
2024-05-09T07:21:33.720Z,12.58
2024-05-09T07:24:35.641Z,12.60
2024-05-09T07:27:37.128Z,12.72
2024-05-09T07:30:38.648Z,12.78
2024-05-09T07:33:40.275Z,12.98
2024-05-09T07:36:42.069Z,13.13
2024-05-09T07:39:43.689Z,13.34
2024-05-09T07:42:46.125Z,13.47
2024-05-09T07:45:52.889Z,13.51
2024-05-09T07:50:35.360Z,13.63
2024-05-09T07:55:22.902Z,13.83
2024-05-09T07:58:27.772Z,14.07
2024-05-09T08:01:29.591Z,14.11
2024-05-09T08:04:31.419Z,14.38
2024-05-09T08:07:35.199Z,14.57
2024-05-09T08:10:36.860Z,14.76
2024-05-09T08:13:38.387Z,15.06
2024-05-09T08:16:39.881Z,15.38
2024-05-09T08:19:42.018Z,15.59
2024-05-09T08:22:43.574Z,15.87
2024-05-09T08:25:45.092Z,16.06
2024-05-09T08:28:46.772Z,16.29
2024-05-09T08:31:48.335Z,16.50
2024-05-09T08:34:50.053Z,16.30
2024-05-09T08:37:53.429Z,16.28
2024-05-09T08:40:55.075Z,16.51
2024-05-09T08:43:56.589Z,16.77
2024-05-09T08:46:58.159Z,17.00
2024-05-09T08:50:00.609Z,16.92
2024-05-09T08:53:02.418Z,17.10
2024-05-09T08:56:04.075Z,17.14
2024-05-09T08:59:06.583Z,17.10
2024-05-09T09:02:08.290Z,17.10
2024-05-09T09:05:17.004Z,17.42
2024-05-09T09:08:18.647Z,17.56
2024-05-09T09:11:20.156Z,17.34
2024-05-09T09:14:21.668Z,17.54
2024-05-09T09:17:23.283Z,17.27
2024-05-09T09:20:35.401Z,17.48
2024-05-09T09:23:41.448Z,17.96
2024-05-09T09:26:44.741Z,18.32
2024-05-09T09:29:46.274Z,18.57
2024-05-09T09:32:49.011Z,19.27
2024-05-09T09:35:50.585Z,19.71
2024-05-09T09:38:52.081Z,19.70
2024-05-09T09:41:54.507Z,19.51
2024-05-09T09:45:04.280Z,19.08
2024-05-09T09:48:07.508Z,18.85
2024-05-09T09:51:09.210Z,19.01
2024-05-09T09:54:10.697Z,19.06
2024-05-09T09:57:12.207Z,19.04
2024-05-09T10:00:20.702Z,19.08
2024-05-09T10:03:26.005Z,19.58
2024-05-09T10:06:27.685Z,20.12
2024-05-09T10:09:29.269Z,19.97
2024-05-09T10:12:30.914Z,20.68
2024-05-09T10:15:52.990Z,21.44
2024-05-09T10:18:55.035Z,21.97
2024-05-09T10:22:06.134Z,21.24
2024-05-09T10:25:07.949Z,20.21
2024-05-09T10:28:12.687Z,19.71
2024-05-09T10:31:15.448Z,20.01
2024-05-09T10:34:18.120Z,19.50
2024-05-09T10:37:19.891Z,19.52
2024-05-09T10:40:26.594Z,19.17
2024-05-09T10:43:32.709Z,18.92
2024-05-09T10:46:34.226Z,18.36
2024-05-09T10:49:35.848Z,18.26
2024-05-09T10:52:37.409Z,18.26
2024-05-09T10:55:38.914Z,18.87
2024-05-09T10:58:40.483Z,19.03
2024-05-09T11:01:42.376Z,20.01
2024-05-09T11:04:45.282Z,20.70
2024-05-09T11:07:46.841Z,20.56
2024-05-09T11:10:48.994Z,21.26
2024-05-09T11:13:50.597Z,21.30
2024-05-09T11:17:01.221Z,20.78
2024-05-09T11:20:08.125Z,21.07
2024-05-09T11:23:12.455Z,21.14
2024-05-09T11:26:15.307Z,21.52
2024-05-09T11:29:19.511Z,20.73
2024-05-09T11:32:28.450Z,19.96
2024-05-09T11:35:30.936Z,19.64
2024-05-09T11:38:33.971Z,19.59
2024-05-09T11:41:35.977Z,19.54
2024-05-09T11:44:37.498Z,20.30
2024-05-09T11:47:41.271Z,21.53
2024-05-09T11:50:42.919Z,22.08
2024-05-09T11:53:44.416Z,22.54
2024-05-09T11:56:45.949Z,22.22
2024-05-09T11:59:47.430Z,22.26
2024-05-09T12:02:49.043Z,22.49
2024-05-09T12:05:50.656Z,21.08
2024-05-09T12:08:52.197Z,20.39
2024-05-09T12:11:53.789Z,20.99
2024-05-09T12:14:55.280Z,20.92
2024-05-09T12:17:58.993Z,21.34
2024-05-09T12:21:02.784Z,21.23
2024-05-09T12:24:04.253Z,21.15
2024-05-09T12:27:05.756Z,21.19
2024-05-09T12:30:11.289Z,20.64
2024-05-09T12:33:13.836Z,20.47
2024-05-09T12:36:15.673Z,21.17
2024-05-09T12:39:17.164Z,20.89
2024-05-09T12:42:26.743Z,21.40
2024-05-09T12:45:29.641Z,22.62
2024-05-09T12:48:31.314Z,22.99
2024-05-09T12:51:32.952Z,21.86
2024-05-09T12:54:34.615Z,22.97
2024-05-09T12:57:36.166Z,23.51
2024-05-09T13:00:37.782Z,24.11
2024-05-09T13:03:39.551Z,23.54
2024-05-09T13:06:41.416Z,22.11
2024-05-09T13:09:42.972Z,21.32
2024-05-09T13:12:44.526Z,22.49
2024-05-09T13:15:46.029Z,21.64
2024-05-09T13:18:47.698Z,21.00
2024-05-09T13:21:49.324Z,20.63
2024-05-09T13:24:50.877Z,20.47
2024-05-09T13:27:52.475Z,20.50
2024-05-09T13:30:54.143Z,21.26
2024-05-09T13:33:55.739Z,22.56
2024-05-09T13:36:57.289Z,24.29
2024-05-09T13:39:59.392Z,24.87
2024-05-09T13:43:01.889Z,25.83
2024-05-09T13:46:03.561Z,26.69
2024-05-09T13:49:05.596Z,24.72
2024-05-09T13:52:07.901Z,22.82
2024-05-09T13:55:09.684Z,21.34
2024-05-09T13:58:11.266Z,20.65
2024-05-09T14:01:12.880Z,20.25
2024-05-09T14:04:14.697Z,20.10
2024-05-09T14:07:16.507Z,20.17
2024-05-09T14:10:23.361Z,21.40
2024-05-09T14:13:30.202Z,21.98
2024-05-09T14:16:31.779Z,22.13
2024-05-09T14:19:33.382Z,21.85
2024-05-09T14:22:35.560Z,21.57
2024-05-09T14:25:41.849Z,20.81
2024-05-09T14:28:44.883Z,20.79
2024-05-09T14:31:47.351Z,21.19
2024-05-09T14:34:49.012Z,21.10
2024-05-09T14:37:50.549Z,20.88
2024-05-09T14:40:52.161Z,20.90
2024-05-09T14:43:53.676Z,20.58
2024-05-09T14:46:55.231Z,20.34
2024-05-09T14:49:56.721Z,20.74
2024-05-09T14:52:58.300Z,20.81
2024-05-09T14:55:59.879Z,20.86
2024-05-09T14:59:01.351Z,20.87
2024-05-09T15:02:02.919Z,20.90
2024-05-09T15:05:04.785Z,20.38
2024-05-09T15:08:06.967Z,19.92
2024-05-09T15:11:08.692Z,19.86
2024-05-09T15:14:10.254Z,20.07
2024-05-09T15:17:11.763Z,20.07
2024-05-09T15:20:17.309Z,20.05
2024-05-09T15:23:21.954Z,20.41
2024-05-09T15:26:23.412Z,20.43
2024-05-09T15:29:26.125Z,20.31
2024-05-09T15:32:29.524Z,20.50
2024-05-09T15:35:31.220Z,20.53
2024-05-09T15:38:32.784Z,20.66
2024-05-09T15:41:34.257Z,20.18
2024-05-09T15:44:35.871Z,20.00
2024-05-09T15:47:38.029Z,19.80
2024-05-09T15:50:41.812Z,19.40
2024-05-09T15:53:44.249Z,19.17
2024-05-09T15:56:48.943Z,19.58
2024-05-09T15:59:50.942Z,19.71
2024-05-09T16:02:52.622Z,19.75
2024-05-09T16:10:06.836Z,19.92
2024-05-09T16:13:08.692Z,19.99
2024-05-09T16:16:10.523Z,19.95
2024-05-09T16:19:12.218Z,19.84
2024-05-09T16:22:13.869Z,19.76
2024-05-09T16:25:15.572Z,19.72
2024-05-09T16:28:26.867Z,19.81
2024-05-09T16:31:28.699Z,19.71
2024-05-09T16:34:30.284Z,19.51
2024-05-09T16:37:31.869Z,19.32
2024-05-09T16:40:38.216Z,19.41
2024-05-09T16:43:42.131Z,19.34
2024-05-09T16:46:43.622Z,19.30
2024-05-09T16:49:45.414Z,19.36
2024-05-09T16:52:46.967Z,19.32
2024-05-09T16:55:48.629Z,19.21
2024-05-09T16:58:50.189Z,19.01
2024-05-09T17:01:51.861Z,18.87
2024-05-09T17:04:53.610Z,18.72
2024-05-09T17:07:55.568Z,18.71
2024-05-09T17:10:57.220Z,18.41
2024-05-09T17:13:58.803Z,18.24
2024-05-09T17:17:00.371Z,18.11
2024-05-09T17:20:01.977Z,17.84
2024-05-09T17:23:03.898Z,17.76
2024-05-09T17:26:05.556Z,17.68
2024-05-09T17:29:09.346Z,17.77
2024-05-09T17:32:13.336Z,17.63
2024-05-09T17:35:15.074Z,17.61
2024-05-09T17:38:16.573Z,17.43
2024-05-09T17:41:20.824Z,17.35
2024-05-09T17:44:22.334Z,17.42
2024-05-09T17:47:24.041Z,17.27
2024-05-09T17:50:31.622Z,17.08
2024-05-09T17:53:37.080Z,17.09
2024-05-09T17:56:38.558Z,16.98
2024-05-09T17:59:40.062Z,16.88
2024-05-09T18:02:41.601Z,16.69
2024-05-09T18:05:44.433Z,16.43
2024-05-09T18:08:46.630Z,16.15
2024-05-09T18:11:48.378Z,15.99
2024-05-09T18:14:49.902Z,15.86
2024-05-09T18:17:51.595Z,15.81
2024-05-09T18:20:53.125Z,15.70
2024-05-09T18:23:57.439Z,15.60
2024-05-09T18:27:00.281Z,15.45
2024-05-09T18:30:01.819Z,15.26
2024-05-09T18:33:04.307Z,15.05
2024-05-09T18:36:06.997Z,15.00
2024-05-09T18:39:08.780Z,14.87
2024-05-09T18:42:10.254Z,14.68
2024-05-09T18:45:11.962Z,14.50
2024-05-09T18:48:13.620Z,14.36
2024-05-09T18:51:15.210Z,14.18
2024-05-09T18:54:16.766Z,14.09
2024-05-09T18:57:18.291Z,13.95
2024-05-09T19:00:31.085Z,13.86
2024-05-09T19:03:37.432Z,13.69
2024-05-09T19:06:39.049Z,13.60
2024-05-09T19:09:40.904Z,13.51
2024-05-09T19:12:42.443Z,13.39
2024-05-09T19:15:44.638Z,13.26
2024-05-09T19:18:46.498Z,13.19
2024-05-09T19:21:48.139Z,12.99
2024-05-09T19:24:49.689Z,12.93
2024-05-09T19:27:51.326Z,12.81
2024-05-09T19:30:53.111Z,12.70
2024-05-09T19:33:54.689Z,12.67
2024-05-09T19:36:56.306Z,12.57
2024-05-09T19:39:57.956Z,12.50
2024-05-09T19:42:59.733Z,12.38
2024-05-09T19:46:01.308Z,12.23
2024-05-09T19:49:05.425Z,12.18
2024-05-09T19:52:07.241Z,12.03
2024-05-09T19:55:09.249Z,11.98
2024-05-09T19:58:11.607Z,11.94
2024-05-09T20:01:14.083Z,11.86
2024-05-09T20:04:15.714Z,11.74
2024-05-09T20:07:20.115Z,11.73
2024-05-09T20:10:24.159Z,11.56
2024-05-09T20:13:31.065Z,11.49
2024-05-09T20:16:32.698Z,11.41
2024-05-09T20:19:34.460Z,11.33
2024-05-09T20:22:36.072Z,11.33
2024-05-09T20:25:37.677Z,11.33
2024-05-09T20:28:39.189Z,11.22
2024-05-09T20:31:41.265Z,11.11
2024-05-09T20:34:43.204Z,11.11
2024-05-09T20:37:44.685Z,11.11
2024-05-09T20:40:46.228Z,11.10
2024-05-09T20:43:47.784Z,10.98
2024-05-09T20:46:49.298Z,10.93
2024-05-09T20:49:51.193Z,10.83
2024-05-09T20:52:52.740Z,10.58
2024-05-09T20:55:54.224Z,10.41
2024-05-09T20:58:55.742Z,10.33
2024-05-09T21:01:57.378Z,10.34
2024-05-09T21:04:59.015Z,10.37
2024-05-09T21:08:00.773Z,10.41
2024-05-09T21:11:02.592Z,10.40
2024-05-09T21:14:04.165Z,10.28
2024-05-09T21:17:05.860Z,10.17
2024-05-09T21:20:11.500Z,10.07
2024-05-09T21:23:18.359Z,9.88
2024-05-09T21:26:23.057Z,9.83
2024-05-09T21:29:24.615Z,9.77
2024-05-09T21:32:26.258Z,9.68
2024-05-09T21:35:27.891Z,9.58
2024-05-09T21:38:29.446Z,9.48
2024-05-09T21:41:30.955Z,9.44
2024-05-09T21:44:32.572Z,9.33
2024-05-09T21:47:34.457Z,9.21
2024-05-09T21:50:40.524Z,9.20
2024-05-09T21:53:43.705Z,9.15
2024-05-09T21:56:45.227Z,9.19
2024-05-09T21:59:47.492Z,9.19
2024-05-09T22:02:49.093Z,9.20
2024-05-09T22:05:51.037Z,9.20
2024-05-09T22:08:52.657Z,9.12
2024-05-09T22:11:54.528Z,9.01
2024-05-09T22:14:56.112Z,8.87
2024-05-09T22:17:57.932Z,8.75
2024-05-09T22:20:59.507Z,8.83
2024-05-09T22:24:01.255Z,8.71
2024-05-09T22:27:02.994Z,8.69
2024-05-09T22:30:09.080Z,8.60
2024-05-09T22:33:13.414Z,8.63
2024-05-09T22:36:14.996Z,8.45
2024-05-09T22:39:17.703Z,8.22
2024-05-09T22:42:19.348Z,8.15
2024-05-09T22:45:20.879Z,8.23
2024-05-09T22:48:23.651Z,8.16
2024-05-09T22:51:25.877Z,8.25
2024-05-09T22:54:27.404Z,8.29
2024-05-09T22:57:28.940Z,8.30
2024-05-09T23:00:32.371Z,8.23
2024-05-09T23:03:34.903Z,8.12
2024-05-09T23:06:39.928Z,8.02
2024-05-09T23:09:41.565Z,7.98
2024-05-09T23:12:43.165Z,8.01
2024-05-09T23:15:44.758Z,7.94
2024-05-09T23:18:46.449Z,7.86
2024-05-09T23:21:48.220Z,7.87
2024-05-09T23:24:49.762Z,7.78
2024-05-09T23:27:51.350Z,7.74
2024-05-09T23:30:52.926Z,7.61
2024-05-09T23:33:55.187Z,7.57
2024-05-09T23:36:56.971Z,7.61
2024-05-09T23:39:58.765Z,7.60
2024-05-09T23:43:00.360Z,7.59
2024-05-09T23:46:02.189Z,7.59
2024-05-09T23:49:03.876Z,7.52
2024-05-09T23:52:05.609Z,7.50
2024-05-09T23:55:07.284Z,7.49
2024-05-09T23:58:09.284Z,7.47
